createdAt,value
2023-01-22T00:04:54.672Z,10.27
2023-01-22T00:09:56.827Z,9.70
2023-01-22T00:14:58.979Z,7.47
2023-01-22T00:20:01.090Z,10.13
2023-01-22T00:25:03.974Z,8.43
2023-01-22T00:30:06.903Z,10.60
2023-01-22T00:35:09.346Z,11.80
2023-01-22T00:40:12.312Z,13.10
2023-01-22T00:45:15.577Z,9.67
2023-01-22T00:50:18.041Z,12.97
2023-01-22T00:55:20.828Z,14.43
2023-01-22T01:00:23.276Z,12.30
2023-01-22T01:05:25.799Z,15.63
2023-01-22T01:10:27.961Z,10.70
2023-01-22T01:15:30.156Z,9.47
2023-01-22T01:20:32.356Z,16.13
2023-01-22T01:25:34.883Z,14.30
2023-01-22T01:30:37.207Z,10.90
2023-01-22T01:35:40.040Z,14.53
2023-01-22T01:40:44.207Z,11.87
2023-01-22T01:45:46.422Z,12.07
2023-01-22T01:51:03.576Z,9.73
2023-01-22T01:56:28.798Z,10.97
2023-01-22T02:01:31.690Z,11.00
2023-01-22T02:06:34.260Z,11.57
2023-01-22T02:11:36.649Z,13.73
2023-01-22T02:16:38.983Z,10.43
2023-01-22T02:21:43.996Z,11.20
2023-01-22T02:26:46.487Z,12.17
2023-01-22T02:31:53.193Z,16.67
2023-01-22T02:36:56.142Z,12.67
2023-01-22T02:41:58.777Z,14.23
2023-01-22T02:47:01.202Z,12.93
2023-01-22T02:52:06.942Z,18.80
2023-01-22T02:57:10.279Z,17.03
2023-01-22T03:02:15.180Z,8.97
2023-01-22T03:07:19.261Z,13.03
2023-01-22T03:12:21.584Z,15.03
2023-01-22T03:17:42.302Z,11.27
2023-01-22T03:22:44.438Z,15.27
2023-01-22T03:28:05.310Z,22.33
2023-01-22T03:33:09.838Z,16.03
2023-01-22T03:38:13.004Z,17.63
2023-01-22T03:43:15.437Z,17.20
2023-01-22T03:48:17.992Z,11.97
2023-01-22T03:53:22.506Z,17.33
2023-01-22T03:58:25.163Z,14.63
2023-01-22T04:03:29.100Z,17.67
2023-01-22T04:08:33.494Z,11.67
2023-01-22T04:13:37.300Z,14.20
2023-01-22T04:18:41.412Z,13.13
2023-01-22T04:24:02.461Z,14.70
2023-01-22T04:29:04.734Z,14.57
2023-01-22T04:34:07.060Z,19.63
2023-01-22T04:39:15.913Z,18.20
2023-01-22T04:44:18.121Z,18.77
2023-01-22T04:49:20.397Z,15.50
2023-01-22T04:54:26.143Z,16.13
2023-01-22T04:59:28.364Z,16.97
2023-01-22T05:04:32.045Z,21.70
2023-01-22T05:09:34.327Z,14.47
2023-01-22T05:14:36.970Z,14.60
2023-01-22T05:19:39.285Z,17.50
2023-01-22T05:24:46.616Z,19.20
2023-01-22T05:29:49.780Z,18.37
2023-01-22T05:35:27.697Z,19.67
2023-01-22T05:40:31.958Z,21.80
2023-01-22T05:45:34.302Z,16.13
2023-01-22T05:51:04.762Z,23.97
2023-01-22T05:56:07.442Z,13.80
2023-01-22T06:01:14.383Z,20.00
2023-01-22T06:06:23.451Z,18.17
2023-01-22T06:11:26.150Z,17.40
2023-01-22T06:16:28.480Z,19.90
2023-01-22T06:21:47.049Z,21.83
2023-01-22T06:26:49.308Z,21.47
2023-01-22T06:31:51.548Z,18.17
2023-01-22T06:36:54.760Z,22.57
2023-01-22T06:41:59.746Z,16.90
2023-01-22T06:47:02.141Z,20.43
2023-01-22T06:52:07.559Z,17.97
2023-01-22T06:57:10.139Z,19.93
2023-01-22T07:02:21.235Z,20.23
2023-01-22T07:07:23.558Z,17.30
2023-01-22T07:12:25.701Z,21.73
2023-01-22T07:17:27.919Z,17.60
2023-01-22T07:22:32.616Z,19.90
2023-01-22T07:27:35.335Z,25.23
2023-01-22T07:32:37.511Z,34.53
2023-01-22T07:37:39.650Z,21.27
2023-01-22T07:42:41.760Z,16.63
2023-01-22T07:47:59.975Z,20.10
2023-01-22T07:53:02.289Z,22.50
2023-01-22T07:58:07.907Z,15.77
2023-01-22T08:03:15.051Z,17.53
2023-01-22T08:08:20.770Z,20.23
2023-01-22T08:13:22.940Z,21.30
2023-01-22T08:18:25.221Z,21.43
2023-01-22T08:23:28.100Z,16.07
2023-01-22T08:28:31.462Z,21.07
2023-01-22T08:33:34.448Z,17.73
2023-01-22T08:38:36.678Z,18.00
2023-01-22T08:43:38.850Z,21.63
2023-01-22T08:48:43.568Z,21.83
2023-01-22T08:53:45.756Z,19.30
2023-01-22T08:58:51.856Z,18.17
2023-01-22T09:03:53.994Z,24.63
2023-01-22T09:08:56.306Z,22.77
2023-01-22T09:13:59.117Z,20.33
2023-01-22T09:19:01.349Z,23.53
2023-01-22T09:24:04.708Z,20.27
2023-01-22T09:29:07.143Z,22.37
2023-01-22T09:34:09.513Z,20.20
2023-01-22T09:39:11.741Z,19.90
2023-01-22T09:44:41.627Z,17.73
2023-01-22T09:49:54.636Z,20.70
2023-01-22T09:54:57.016Z,21.73
2023-01-22T09:59:59.376Z,19.47
2023-01-22T10:05:05.542Z,21.30
2023-01-22T10:10:28.638Z,22.27
2023-01-22T10:15:30.867Z,19.80
2023-01-22T10:20:33.800Z,21.47
2023-01-22T10:25:36.008Z,22.03
2023-01-22T10:30:49.059Z,21.50
2023-01-22T10:35:53.956Z,23.53
2023-01-22T10:41:01.577Z,25.27
2023-01-22T10:46:07.549Z,21.43
2023-01-22T10:51:19.699Z,20.07
2023-01-22T10:56:36.907Z,20.70
2023-01-22T11:01:43.394Z,18.67
2023-01-22T11:06:48.779Z,20.23
2023-01-22T11:12:09.725Z,22.13
2023-01-22T11:17:34.763Z,18.80
2023-01-22T11:22:39.273Z,18.60
2023-01-22T11:28:22.986Z,20.13
2023-01-22T11:33:47.174Z,21.73
2023-01-22T11:38:54.404Z,19.27
2023-01-22T11:44:23.255Z,23.23
2023-01-22T11:50:06.380Z,23.37
2023-01-22T11:55:41.177Z,21.50
2023-01-22T12:00:58.938Z,23.77
2023-01-22T12:06:21.436Z,23.27
2023-01-22T12:11:36.692Z,29.03
2023-01-22T12:16:51.032Z,20.23
2023-01-22T12:22:03.915Z,22.13
2023-01-22T12:27:28.935Z,23.53
2023-01-22T12:32:32.316Z,26.27
2023-01-22T12:37:47.607Z,22.77
2023-01-22T12:43:02.876Z,21.93
2023-01-22T12:48:28.850Z,19.97
2023-01-22T12:53:35.956Z,29.83
2023-01-22T12:58:40.627Z,24.33
2023-01-22T13:03:43.255Z,25.73
2023-01-22T13:08:49.748Z,21.80
2023-01-22T13:14:09.918Z,24.30
2023-01-22T13:19:42.443Z,30.60
2023-01-22T13:24:57.199Z,28.43
2023-01-22T13:30:22.799Z,24.13
2023-01-22T13:35:25.071Z,22.50
2023-01-22T13:40:31.465Z,28.27
2023-01-22T13:45:40.155Z,24.43
2023-01-22T13:50:50.937Z,24.93
2023-01-22T13:55:54.467Z,24.20
2023-01-22T14:00:56.695Z,23.40
2023-01-22T14:06:15.261Z,20.57
2023-01-22T14:11:18.213Z,22.87
2023-01-22T14:16:21.748Z,21.40
2023-01-22T14:21:24.007Z,17.77
2023-01-22T14:26:26.355Z,22.77
2023-01-22T14:31:28.890Z,28.43
2023-01-22T14:36:31.677Z,23.73
2023-01-22T14:41:33.961Z,23.17
2023-01-22T14:46:38.312Z,27.60
2023-01-22T14:51:41.456Z,24.67
2023-01-22T14:56:43.821Z,22.17
2023-01-22T15:01:46.217Z,21.50
2023-01-22T15:06:49.166Z,24.20
2023-01-22T15:11:51.370Z,23.00
2023-01-22T15:16:53.910Z,28.20
2023-01-22T15:21:58.759Z,27.23
2023-01-22T15:27:01.040Z,23.17
2023-01-22T15:32:03.619Z,31.53
2023-01-22T15:37:06.131Z,30.93
2023-01-22T15:42:08.864Z,29.73
2023-01-22T15:47:11.224Z,23.50
2023-01-22T15:52:13.709Z,24.57
2023-01-22T15:57:16.172Z,24.57
2023-01-22T16:02:18.878Z,28.20
2023-01-22T16:07:26.850Z,21.37
2023-01-22T16:12:30.554Z,23.13
2023-01-22T16:17:33.381Z,21.87
2023-01-22T16:22:35.905Z,32.43
2023-01-22T16:27:39.281Z,25.30
2023-01-22T16:32:43.654Z,26.77
2023-01-22T16:37:45.980Z,26.20
2023-01-22T16:43:00.138Z,26.43
2023-01-22T16:48:02.737Z,24.83
2023-01-22T16:53:05.146Z,25.83
2023-01-22T16:58:07.747Z,28.87
2023-01-22T17:03:17.250Z,29.67
2023-01-22T17:08:22.540Z,26.17
2023-01-22T17:13:24.774Z,25.40
2023-01-22T17:18:27.577Z,27.57
2023-01-22T17:23:29.912Z,26.40
2023-01-22T17:28:36.882Z,25.70
2023-01-22T17:33:40.210Z,31.30
2023-01-22T17:38:42.756Z,29.27
2023-01-22T17:43:46.695Z,25.93
2023-01-22T17:48:51.613Z,26.07
2023-01-22T17:53:55.765Z,26.40
2023-01-22T17:59:01.246Z,25.80
2023-01-22T18:04:24.311Z,24.40
2023-01-22T18:09:26.824Z,29.30
2023-01-22T18:14:34.187Z,29.63
2023-01-22T18:19:36.747Z,30.67
2023-01-22T18:24:40.369Z,26.03
2023-01-22T18:29:45.749Z,29.50
2023-01-22T18:34:48.268Z,30.40
2023-01-22T18:39:50.650Z,29.70
2023-01-22T18:44:53.137Z,17.50
2023-01-22T18:49:55.611Z,18.07
2023-01-22T18:54:57.831Z,21.57
2023-01-22T19:00:00.105Z,16.60
2023-01-22T19:05:02.844Z,17.20
2023-01-22T19:10:09.039Z,15.47
2023-01-22T19:15:12.035Z,17.10
2023-01-22T19:20:15.540Z,19.83
2023-01-22T19:25:18.264Z,19.67
2023-01-22T19:30:23.280Z,17.03
2023-01-22T19:35:25.633Z,22.03
2023-01-22T19:40:28.008Z,16.87
2023-01-22T19:45:30.286Z,17.70
2023-01-22T19:50:36.232Z,18.27
2023-01-22T19:55:41.215Z,15.17
2023-01-22T20:00:43.458Z,16.93
2023-01-22T20:05:45.723Z,15.90
2023-01-22T20:10:51.231Z,17.10
2023-01-22T20:15:54.491Z,16.47
2023-01-22T20:20:58.755Z,20.73
2023-01-22T20:26:03.085Z,18.80
2023-01-22T20:31:07.896Z,13.87
2023-01-22T20:36:15.311Z,16.30
2023-01-22T20:41:18.908Z,18.13
2023-01-22T20:46:23.195Z,16.90
2023-01-22T20:51:27.857Z,14.83
2023-01-22T20:56:32.923Z,16.33
2023-01-22T21:01:35.632Z,13.43
2023-01-22T21:06:39.729Z,16.17
2023-01-22T21:11:42.766Z,13.00
2023-01-22T21:16:45.112Z,13.90
2023-01-22T21:21:47.680Z,15.73
2023-01-22T21:26:50.446Z,17.33
2023-01-22T21:31:53.347Z,14.23
2023-01-22T21:36:58.651Z,13.90
2023-01-22T21:42:19.888Z,14.17
2023-01-22T21:47:22.091Z,14.53
2023-01-22T21:52:24.294Z,14.30
2023-01-22T21:57:27.092Z,15.30
2023-01-22T22:02:29.291Z,16.73
2023-01-22T22:07:31.540Z,11.80
2023-01-22T22:12:33.690Z,17.37
2023-01-22T22:17:37.073Z,11.73
2023-01-22T22:22:39.332Z,10.63
2023-01-22T22:27:41.528Z,11.43
2023-01-22T22:32:43.813Z,14.97
2023-01-22T22:37:46.005Z,13.77
2023-01-22T22:42:48.145Z,12.87
2023-01-22T22:47:50.398Z,11.50
2023-01-22T22:52:52.528Z,13.77
2023-01-22T22:57:54.688Z,14.00
2023-01-22T23:02:56.908Z,15.10
2023-01-22T23:07:59.076Z,14.10
2023-01-22T23:13:02.459Z,14.87
2023-01-22T23:18:04.685Z,17.57
2023-01-22T23:23:06.872Z,16.80
2023-01-22T23:28:09.116Z,14.83
2023-01-22T23:33:11.341Z,15.87
2023-01-22T23:38:13.467Z,13.70
2023-01-22T23:43:15.554Z,19.13
2023-01-22T23:48:18.168Z,13.67
2023-01-22T23:53:21.747Z,14.07
2023-01-22T23:58:24.230Z,17.47
